Time;durP1;ratioP1;P1;durP2;ratioP2;P2;SDS_P1;SDS_P2;PMS_P1;PMS_P2;Temp;Humidity;BMP_temperature;BMP_pressure;BME280_temperature;BME280_humidity;BME280_pressure;Samples;Min_cycle;Max_cycle;Signal;HPM_P1;HPM_P2
2024/01/16 00:01:19;;;;;;;0.00;0.00;;;;;;;10.88;100.00;100742.78;10425549;28;20038;-81
2024/01/16 00:06:21;;;;;;;0.00;0.00;;;;;;;10.69;100.00;100741.50;10388450;28;20061;-80
2024/01/16 00:11:23;;;;;;;0.00;0.00;;;;;;;10.74;100.00;100750.22;10400224;28;20053;-80
2024/01/16 00:16:25;;;;;;;0.00;0.00;;;;;;;11.61;100.00;100748.56;10418603;28;20050;-80
2024/01/16 00:21:26;;;;;;;0.00;0.00;;;;;;;11.82;100.00;100745.50;10420413;28;20509;-79
2024/01/16 00:26:28;;;;;;;0.08;0.08;;;;;;;11.52;100.00;100759.56;10407878;28;20057;-80
2024/01/16 00:31:29;;;;;;;0.00;0.00;;;;;;;11.31;100.00;100758.28;10392064;28;20696;-80
2024/01/16 00:36:31;;;;;;;0.00;0.00;;;;;;;10.31;100.00;100749.19;10409475;28;20064;-79
2024/01/16 00:41:33;;;;;;;0.00;0.00;;;;;;;10.45;100.00;100753.00;10398585;28;20052;-80
2024/01/16 00:46:34;;;;;;;0.00;0.00;;;;;;;11.10;100.00;100759.59;10409627;28;20508;-80
2024/01/16 00:51:36;;;;;;;0.00;0.00;;;;;;;10.94;100.00;100767.81;10406162;28;20038;-79
2024/01/16 00:56:37;;;;;;;0.10;0.10;;;;;;;12.06;100.00;100782.13;10409139;28;20046;-80
2024/01/16 01:01:39;;;;;;;0.00;0.00;;;;;;;11.97;100.00;100786.25;10399882;28;20099;-80
2024/01/16 01:06:41;;;;;;;0.00;0.00;;;;;;;11.53;100.00;100795.72;10401315;28;20049;-80
2024/01/16 01:11:42;;;;;;;0.00;0.00;;;;;;;11.07;100.00;100799.91;10407970;28;20137;-79
2024/01/16 01:16:44;;;;;;;0.10;0.10;;;;;;;10.76;100.00;100794.91;10410691;28;20076;-81
2024/01/16 01:21:46;;;;;;;0.00;0.00;;;;;;;10.33;100.00;100804.13;10388703;28;20053;-80
2024/01/16 01:26:47;;;;;;;0.00;0.00;;;;;;;10.20;100.00;100802.09;10424831;28;20520;-80
2024/01/16 01:31:49;;;;;;;0.00;0.00;;;;;;;9.42;100.00;100815.41;10411561;28;20133;-81
2024/01/16 01:36:50;;;;;;;0.00;0.00;;;;;;;11.01;100.00;100807.50;10426059;28;20049;-81
2024/01/16 01:41:52;;;;;;;0.00;0.00;;;;;;;11.45;100.00;100801.56;10422521;28;20045;-80
2024/01/16 01:46:55;;;;;;;0.00;0.00;;;;;;;10.82;100.00;100808.78;10421588;28;20045;-80
2024/01/16 01:51:57;;;;;;;0.00;0.00;;;;;;;10.92;100.00;100806.47;10415452;28;20523;-80
2024/01/16 01:57:00;;;;;;;0.00;0.00;;;;;;;11.04;100.00;100804.97;10415894;28;20056;-80
2024/01/16 02:02:04;;;;;;;0.00;0.00;;;;;;;11.38;100.00;100805.72;10394895;28;20045;-80
2024/01/16 02:07:07;;;;;;;3.83;1.00;;;;;;;11.13;100.00;100812.06;10424388;28;20041;-80
2024/01/16 02:12:09;;;;;;;0.00;0.00;;;;;;;10.18;100.00;100814.94;10425641;28;20497;-80
2024/01/16 02:17:10;;;;;;;4.65;0.73;;;;;;;10.46;100.00;100811.38;10422461;28;20058;-80
2024/01/16 02:22:19;;;;;;;0.00;0.00;;;;;;;10.25;100.00;100808.22;10403679;28;20077;-80
2024/01/16 02:27:21;;;;;;;0.00;0.00;;;;;;;10.72;100.00;100813.72;10405271;28;20053;-80
2024/01/16 02:32:22;;;;;;;0.10;0.10;;;;;;;10.63;100.00;100814.38;10421093;28;20785;-81
2024/01/16 02:37:24;;;;;;;0.00;0.00;;;;;;;10.57;100.00;100821.06;10413995;28;20517;-79
2024/01/16 02:42:26;;;;;;;0.08;0.05;;;;;;;10.15;100.00;100820.88;10409143;28;20128;-80
2024/01/16 02:47:27;;;;;;;0.00;0.00;;;;;;;10.40;100.00;100816.38;10413344;28;20053;-81
2024/01/16 02:52:29;;;;;;;0.10;0.10;;;;;;;9.92;100.00;100814.25;10410621;28;20115;-80
2024/01/16 02:57:31;;;;;;;0.00;0.00;;;;;;;11.06;100.00;100817.06;10414093;28;20041;-80
2024/01/16 03:02:33;;;;;;;0.00;0.00;;;;;;;10.61;100.00;100820.34;10414111;28;20497;-81
2024/01/16 03:07:35;;;;;;;0.00;0.00;;;;;;;10.74;100.00;100817.22;10413760;28;20050;-81
2024/01/16 03:12:37;;;;;;;0.00;0.00;;;;;;;10.76;100.00;100820.69;10426748;28;20099;-82
2024/01/16 03:17:38;;;;;;;0.00;0.00;;;;;;;11.45;100.00;100817.03;10395728;28;20049;-80
2024/01/16 03:22:40;;;;;;;3.30;1.10;;;;;;;11.23;100.00;100816.56;10421077;28;20049;-78
2024/01/16 03:27:42;;;;;;;0.00;0.00;;;;;;;10.34;100.00;100805.88;10411964;28;20041;-81
2024/01/16 03:32:44;;;;;;;0.65;0.65;;;;;;;10.32;100.00;100802.41;10395542;28;20413;-80
2024/01/16 03:37:45;;;;;;;0.00;0.00;;;;;;;10.76;100.00;100794.91;10405595;28;20053;-79
2024/01/16 03:42:47;;;;;;;0.00;0.00;;;;;;;11.09;100.00;100793.94;10417254;28;20128;-80
2024/01/16 03:47:50;;;;;;;0.00;0.00;;;;;;;11.42;100.00;100800.66;10425986;28;20038;-79
2024/01/16 03:52:52;;;;;;;0.10;0.10;;;;;;;12.16;100.00;100793.47;10424701;28;20662;-80
2024/01/16 03:57:53;;;;;;;0.00;0.00;;;;;;;11.81;100.00;100798.84;10394719;28;20042;-80
2024/01/16 04:02:55;;;;;;;0.68;0.50;;;;;;;11.37;100.00;100804.84;10410699;28;20536;-79
2024/01/16 04:07:57;;;;;;;0.00;0.00;;;;;;;10.99;100.00;100812.59;10411685;28;20073;-80
2024/01/16 04:13:02;;;;;;;0.00;0.00;;;;;;;11.31;100.00;100814.19;10400511;28;20520;-80
2024/01/16 04:18:04;;;;;;;0.00;0.00;;;;;;;11.18;100.00;100807.88;10412340;28;20051;-81
2024/01/16 04:23:06;;;;;;;0.00;0.00;;;;;;;11.27;100.00;100813.25;10418570;28;20057;-79
2024/01/16 04:28:08;;;;;;;0.00;0.00;;;;;;;10.83;100.00;100810.53;10403818;28;20049;-80
2024/01/16 04:33:10;;;;;;;0.10;0.10;;;;;;;10.23;100.00;100799.59;10411059;28;20052;-82
2024/01/16 04:38:12;;;;;;;0.00;0.00;;;;;;;10.96;100.00;100812.56;10403398;28;20045;-81
2024/01/16 04:43:13;;;;;;;0.20;0.20;;;;;;;10.57;100.00;100806.50;10422502;28;20517;-81
2024/01/16 04:48:16;;;;;;;0.20;0.20;;;;;;;11.32;100.00;100811.63;10406796;28;20414;-81
2024/01/16 04:53:18;;;;;;;0.00;0.00;;;;;;;11.01;100.00;100810.94;10423214;28;20046;-80
2024/01/16 04:58:20;;;;;;;0.10;0.10;;;;;;;11.10;100.00;100818.00;10391039;28;20425;-79
2024/01/16 05:03:21;;;;;;;0.00;0.00;;;;;;;11.08;100.00;100820.56;10392273;28;20705;-81
2024/01/16 05:08:24;;;;;;;0.00;0.00;;;;;;;10.91;100.00;100815.03;10406888;28;20428;-80
2024/01/16 05:13:26;;;;;;;0.00;0.00;;;;;;;9.50;100.00;100803.66;10401901;28;20406;-80
2024/01/16 05:18:27;;;;;;;0.00;0.00;;;;;;;10.66;100.00;100794.66;10408397;28;20045;-80
2024/01/16 05:23:29;;;;;;;0.43;0.25;;;;;;;11.03;100.00;100787.75;10404131;28;20045;-80
2024/01/16 05:28:31;;;;;;;0.00;0.00;;;;;;;11.00;100.00;100782.56;10403148;28;20045;-79
2024/01/16 05:33:32;;;;;;;0.45;0.45;;;;;;;10.12;100.00;100769.28;10399124;28;20060;-81
2024/01/16 05:38:35;;;;;;;0.00;0.00;;;;;;;9.66;100.00;100768.06;10405863;28;20107;-81
2024/01/16 05:43:36;;;;;;;0.00;0.00;;;;;;;10.49;100.00;100769.38;10415650;28;20115;-82
2024/01/16 05:48:38;;;;;;;0.00;0.00;;;;;;;9.91;100.00;100772.19;10407454;28;20042;-80
2024/01/16 05:53:40;;;;;;;0.10;0.10;;;;;;;9.44;100.00;100776.91;10423683;28;20041;-80
2024/01/16 05:58:41;;;;;;;0.00;0.00;;;;;;;10.82;100.00;100765.84;10409029;28;20060;-79
2024/01/16 06:03:46;;;;;;;0.00;0.00;;;;;;;10.50;100.00;100765.09;10394107;28;20050;-82
2024/01/16 06:08:47;;;;;;;0.00;0.00;;;;;;;10.51;100.00;100766.84;10423307;28;20128;-81
2024/01/16 06:13:49;;;;;;;0.00;0.00;;;;;;;10.41;100.00;100758.88;10396539;28;20049;-81
2024/01/16 06:18:51;;;;;;;0.00;0.00;;;;;;;11.48;100.00;100760.34;10403844;28;20050;-80
2024/01/16 06:23:53;;;;;;;0.00;0.00;;;;;;;11.66;100.00;100765.00;10426055;28;20505;-79
2024/01/16 06:28:54;;;;;;;0.00;0.00;;;;;;;10.43;100.00;100770.09;10399839;28;20468;-81
2024/01/16 06:33:56;;;;;;;0.15;0.15;;;;;;;11.51;100.00;100770.72;10422503;28;20472;-80
2024/01/16 06:38:58;;;;;;;0.00;0.00;;;;;;;11.89;100.00;100770.59;10412030;28;20053;-81
2024/01/16 06:43:59;;;;;;;0.45;0.15;;;;;;;10.96;100.00;100786.78;10403891;28;20034;-80
2024/01/16 06:49:02;;;;;;;0.13;0.10;;;;;;;11.29;100.00;100782.31;10424162;28;20048;-78
2024/01/16 06:54:03;;;;;;;0.00;0.00;;;;;;;10.91;100.00;100784.09;10429281;28;20042;-80
2024/01/16 06:59:05;;;;;;;0.00;0.00;;;;;;;10.85;100.00;100783.97;10431896;28;20303;-80
2024/01/16 07:04:14;;;;;;;0.20;0.20;;;;;;;10.96;100.00;100784.19;10414828;28;20070;-81
2024/01/16 07:09:18;;;;;;;0.30;0.20;;;;;;;10.87;100.00;100786.56;10413010;28;20061;-80
2024/01/16 07:14:19;;;;;;;0.00;0.00;;;;;;;10.68;100.00;100791.31;10424555;28;20049;-81
2024/01/16 07:19:21;;;;;;;0.00;0.00;;;;;;;11.01;100.00;100785.16;10425063;28;20132;-80
2024/01/16 07:24:23;;;;;;;0.00;0.00;;;;;;;11.13;100.00;100788.88;10412543;28;20099;-80
2024/01/16 07:29:24;;;;;;;0.03;0.03;;;;;;;12.02;100.00;100784.63;10425976;28;20045;-81
2024/01/16 07:34:26;;;;;;;1.25;0.30;;;;;;;11.55;100.00;100793.16;10408630;28;20065;-80
2024/01/16 07:39:28;;;;;;;0.25;0.25;;;;;;;11.55;100.00;100788.00;10394858;28;20068;-79
2024/01/16 07:44:29;;;;;;;0.10;0.10;;;;;;;12.17;100.00;100795.22;10419523;28;20119;-81
2024/01/16 07:49:31;;;;;;;0.10;0.10;;;;;;;11.32;100.00;100803.03;10416715;28;20042;-81
2024/01/16 07:54:33;;;;;;;0.00;0.00;;;;;;;10.72;100.00;100800.84;10432900;28;20045;-81
2024/01/16 07:59:34;;;;;;;0.00;0.00;;;;;;;11.18;100.00;100805.31;10426371;28;20048;-80
2024/01/16 08:04:36;;;;;;;0.08;0.08;;;;;;;9.93;100.00;100813.41;10415328;28;20045;-81
2024/01/16 08:09:38;;;;;;;0.00;0.00;;;;;;;11.12;100.00;100813.75;10431830;28;20050;-81
2024/01/16 08:14:39;;;;;;;0.00;0.00;;;;;;;11.25;100.00;100818.34;10431393;28;20488;-80
2024/01/16 08:19:41;;;;;;;0.00;0.00;;;;;;;11.27;100.00;100833.88;10428807;28;20535;-79
2024/01/16 08:24:42;;;;;;;0.08;0.08;;;;;;;11.23;100.00;100827.78;10413655;28;20041;-80
2024/01/16 08:29:44;;;;;;;0.00;0.00;;;;;;;11.26;100.00;100826.97;10396789;28;20059;-79
2024/01/16 08:34:46;;;;;;;0.20;0.20;;;;;;;10.65;100.00;100829.00;10411310;28;20049;-80
2024/01/16 08:39:48;;;;;;;0.20;0.20;;;;;;;10.66;100.00;100818.72;10393014;28;20156;-80
2024/01/16 08:44:50;;;;;;;0.10;0.10;;;;;;;11.02;100.00;100812.69;10399999;28;20049;-80
2024/01/16 08:49:52;;;;;;;0.52;0.25;;;;;;;11.48;100.00;100822.28;10413344;28;20045;-81
2024/01/16 08:54:53;;;;;;;0.32;0.32;;;;;;;10.99;100.00;100837.53;10402935;28;20037;-80
2024/01/16 08:59:55;;;;;;;0.65;0.57;;;;;;;11.09;100.00;100831.75;10429431;28;20746;-80
2024/01/16 09:04:58;;;;;;;0.20;0.10;;;;;;;10.92;100.00;100831.34;10405938;28;20041;-81
2024/01/16 09:10:00;;;;;;;0.00;0.00;;;;;;;10.87;100.00;100828.66;10426930;23;20511;-84
2024/01/16 09:15:02;;;;;;;0.30;0.30;;;;;;;9.46;100.00;100824.97;10378802;28;20132;-83
2024/01/16 09:20:04;;;;;;;0.15;0.08;;;;;;;11.61;100.00;100834.56;10368183;28;20069;-83
2024/01/16 09:25:06;;;;;;;0.15;0.08;;;;;;;11.37;100.00;100833.22;10365797;28;20049;-83
2024/01/16 09:30:12;;;;;;;0.03;0.03;;;;;;;10.76;100.00;100830.97;10369333;28;20381;-83
2024/01/16 09:35:15;;;;;;;0.10;0.10;;;;;;;10.83;100.00;100820.84;10397795;28;20482;-83
2024/01/16 09:40:16;;;;;;;0.00;0.00;;;;;;;10.31;100.00;100818.69;10405733;28;20053;-83
2024/01/16 09:45:21;;;;;;;0.20;0.20;;;;;;;9.38;100.00;100818.72;10409832;28;20404;-84
2024/01/16 09:50:23;;;;;;;1.58;1.15;;;;;;;10.78;100.00;100806.13;10391040;28;20080;-83
2024/01/16 09:55:25;;;;;;;0.08;0.08;;;;;;;10.72;100.00;100803.41;10384589;28;20037;-83
2024/01/16 10:00:27;;;;;;;0.00;0.00;;;;;;;10.97;100.00;100814.31;10396120;28;20073;-82
2024/01/16 10:05:30;;;;;;;0.05;0.05;;;;;;;10.13;100.00;100804.50;10401024;28;20407;-82
2024/01/16 10:10:32;;;;;;;0.00;0.00;;;;;;;10.86;100.00;100805.44;10414392;28;20144;-83
2024/01/16 10:15:52;;;;;;;0.00;0.00;;;;;;;10.78;100.00;100808.72;10377712;28;20077;-83
2024/01/16 10:20:54;;;;;;;2.55;1.20;;;;;;;10.74;100.00;100804.34;10404540;28;20042;-83
2024/01/16 10:26:06;;;;;;;0.00;0.00;;;;;;;10.22;100.00;100800.44;10399850;28;20083;-84
2024/01/16 10:31:14;;;;;;;0.00;0.00;;;;;;;10.46;100.00;100801.06;10376117;28;20092;-84
2024/01/16 10:36:18;;;;;;;0.13;0.13;;;;;;;10.78;100.00;100797.53;10385680;28;20041;-83
2024/01/16 10:41:25;;;;;;;0.00;0.00;;;;;;;9.73;100.00;100794.84;10377582;28;20499;-84
2024/01/16 10:46:27;;;;;;;0.05;0.05;;;;;;;10.81;100.00;100781.28;10398415;28;20133;-81
2024/01/16 10:51:30;;;;;;;0.00;0.00;;;;;;;12.30;100.00;100780.81;10375094;28;20041;-84
2024/01/16 10:56:32;;;;;;;0.00;0.00;;;;;;;10.69;100.00;100782.72;10390223;28;20149;-83
2024/01/16 11:01:35;;;;;;;0.20;0.20;;;;;;;11.72;100.00;100786.66;10400901;28;20049;-84
2024/01/16 11:06:37;;;;;;;0.03;0.03;;;;;;;13.01;100.00;100784.47;10383147;28;20149;-84
2024/01/16 11:11:39;;;;;;;0.57;0.57;;;;;;;13.05;100.00;100785.38;10390882;28;20136;-84
2024/01/16 11:16:42;;;;;;;0.00;0.00;;;;;;;12.46;100.00;100787.09;10384157;28;20050;-84
2024/01/16 11:21:45;;;;;;;0.10;0.10;;;;;;;10.79;100.00;100800.16;10362817;28;20140;-85
2024/01/16 11:26:47;;;;;;;0.00;0.00;;;;;;;11.05;100.00;100794.72;10373361;28;20057;-84
2024/01/16 11:31:49;;;;;;;0.20;0.20;;;;;;;10.74;100.00;100786.28;10361888;28;20045;-85
2024/01/16 11:36:55;;;;;;;0.00;0.00;;;;;;;12.06;100.00;100774.38;10388497;28;20045;-84
2024/01/16 11:41:59;;;;;;;0.00;0.00;;;;;;;11.86;100.00;100767.97;10372808;28;20095;-83
2024/01/16 11:47:02;;;;;;;1.20;0.65;;;;;;;12.31;100.00;100743.81;10404519;28;20038;-84
2024/01/16 11:52:04;;;;;;;2.17;1.75;;;;;;;12.14;100.00;100737.50;10374043;28;20046;-83
2024/01/16 11:57:34;;;;;;;0.00;0.00;;;;;;;12.12;100.00;100734.00;10374459;28;20053;-83
2024/01/16 12:02:57;;;;;;;0.28;0.20;;;;;;;12.56;100.00;100720.91;10372302;28;20073;-83
2024/01/16 12:07:59;;;;;;;1.27;0.77;;;;;;;13.38;100.00;100723.69;10403201;28;20042;-85
2024/01/16 12:13:02;;;;;;;0.10;0.10;;;;;;;12.54;100.00;100730.38;10369995;28;20523;-83
2024/01/16 12:18:06;;;;;;;0.25;0.22;;;;;;;11.67;100.00;100725.47;10392690;28;20077;-85
2024/01/16 12:23:21;;;;;;;0.22;0.22;;;;;;;12.00;100.00;100727.81;10395265;28;20511;-85
2024/01/16 12:28:23;;;;;;;0.00;0.00;;;;;;;13.81;100.00;100729.38;10393652;28;20081;-84
2024/01/16 12:33:34;;;;;;;0.10;0.10;;;;;;;12.72;100.00;100724.63;10360810;28;20046;-83
2024/01/16 12:38:36;;;;;;;0.00;0.00;;;;;;;12.44;100.00;100713.00;10412997;28;20046;-85
2024/01/16 12:43:39;;;;;;;0.00;0.00;;;;;;;13.15;100.00;100708.78;10396295;28;20447;-84
2024/01/16 12:48:41;;;;;;;0.10;0.10;;;;;;;12.17;100.00;100706.56;10392731;28;20148;-84
2024/01/16 12:54:13;;;;;;;1.80;1.08;;;;;;;11.32;100.00;100695.56;10407355;28;20404;-85
2024/01/16 12:59:16;;;;;;;0.00;0.00;;;;;;;11.15;100.00;100689.19;10404655;28;20125;-84
2024/01/16 13:04:17;;;;;;;0.00;0.00;;;;;;;11.41;100.00;100680.28;10401327;28;20448;-85
2024/01/16 13:09:22;;;;;;;0.00;0.00;;;;;;;10.75;100.00;100691.81;10399172;28;20441;-84
2024/01/16 13:14:24;;;;;;;0.10;0.10;;;;;;;13.11;100.00;100669.06;10388335;28;20495;-84
2024/01/16 13:19:26;;;;;;;0.10;0.10;;;;;;;12.10;100.00;100669.44;10398396;28;20132;-84
2024/01/16 13:24:28;;;;;;;0.00;0.00;;;;;;;12.95;100.00;100673.19;10369980;28;20114;-83
2024/01/16 13:29:35;;;;;;;0.00;0.00;;;;;;;14.23;100.00;100673.63;10402206;28;20053;-83
2024/01/16 13:34:38;;;;;;;0.00;0.00;;;;;;;14.13;100.00;100669.22;10398022;28;20038;-83
2024/01/16 13:39:40;;;;;;;0.10;0.10;;;;;;;12.63;100.00;100668.47;10403936;28;20087;-84
2024/01/16 13:44:43;;;;;;;0.03;0.03;;;;;;;11.57;100.00;100678.84;10381340;28;20513;-85
2024/01/16 13:49:45;;;;;;;0.00;0.00;;;;;;;13.25;100.00;100661.47;10378370;28;20046;-84
2024/01/16 13:54:47;;;;;;;0.05;0.05;;;;;;;11.91;100.00;100670.81;10396769;28;20038;-85
2024/01/16 13:59:49;;;;;;;0.00;0.00;;;;;;;11.35;100.00;100671.53;10378233;28;20119;-84
2024/01/16 14:04:51;;;;;;;0.93;0.52;;;;;;;12.66;100.00;100654.72;10378257;28;20038;-84
2024/01/16 14:09:53;;;;;;;0.00;0.00;;;;;;;12.05;100.00;100656.44;10383750;28;20497;-83
2024/01/16 14:14:55;;;;;;;0.00;0.00;;;;;;;12.03;100.00;100660.69;10402412;28;20112;-83
2024/01/16 14:19:57;;;;;;;0.30;0.30;;;;;;;11.58;100.00;100659.94;10392432;28;20140;-85
2024/01/16 14:24:59;;;;;;;0.00;0.00;;;;;;;11.55;100.00;100648.69;10352915;28;20108;-84
2024/01/16 14:30:00;;;;;;;0.38;0.30;;;;;;;11.19;100.00;100639.44;10404643;28;20081;-85
2024/01/16 14:35:04;;;;;;;0.08;0.08;;;;;;;12.34;100.00;100637.94;10403064;28;20077;-83
2024/01/16 14:40:12;;;;;;;0.00;0.00;;;;;;;12.66;100.00;100632.34;10361714;28;20497;-83
2024/01/16 14:45:14;;;;;;;0.10;0.10;;;;;;;12.22;100.00;100632.59;10403943;28;20477;-82
2024/01/16 14:50:17;;;;;;;0.10;0.10;;;;;;;12.33;100.00;100641.34;10387810;28;20038;-83
2024/01/16 14:55:22;;;;;;;0.32;0.20;;;;;;;11.87;100.00;100631.16;10401047;28;20404;-83
2024/01/16 15:00:26;;;;;;;0.22;0.22;;;;;;;12.04;100.00;100628.88;10374383;28;20136;-83
2024/01/16 15:05:28;;;;;;;0.15;0.15;;;;;;;12.62;100.00;100627.09;10385080;28;20046;-83
2024/01/16 15:10:30;;;;;;;0.65;0.65;;;;;;;11.28;100.00;100619.00;10399938;28;20053;-83
2024/01/16 15:15:32;;;;;;;0.05;0.05;;;;;;;10.17;100.00;100622.69;10371027;28;20580;-84
2024/01/16 15:20:34;;;;;;;2.45;0.60;;;;;;;10.79;100.00;100617.19;10388404;28;20117;-84
2024/01/16 15:25:35;;;;;;;0.88;0.38;;;;;;;11.32;100.00;100615.59;10375191;28;20046;-83
2024/01/16 15:30:37;;;;;;;0.20;0.17;;;;;;;10.44;100.00;100616.44;10398706;28;20073;-83
2024/01/16 15:35:39;;;;;;;0.00;0.00;;;;;;;11.07;100.00;100615.13;10402211;28;20413;-84
2024/01/16 15:40:41;;;;;;;0.00;0.00;;;;;;;10.94;100.00;100623.47;10369252;28;20464;-83
2024/01/16 15:45:43;;;;;;;0.05;0.05;;;;;;;10.07;100.00;100625.84;10401320;28;20080;-83
2024/01/16 15:50:44;;;;;;;0.40;0.35;;;;;;;10.94;100.00;100623.47;10375758;28;20546;-84
2024/01/16 15:55:46;;;;;;;0.00;0.00;;;;;;;10.48;100.00;100636.28;10406591;28;20041;-84
2024/01/16 16:00:48;;;;;;;0.10;0.10;;;;;;;11.02;100.00;100616.78;10373340;28;20080;-83
2024/01/16 16:05:50;;;;;;;0.00;0.00;;;;;;;11.78;100.00;100614.66;10403972;28;20045;-83
2024/01/16 16:10:52;;;;;;;0.10;0.10;;;;;;;9.68;100.00;100633.50;10396222;28;20050;-83
2024/01/16 16:15:54;;;;;;;0.00;0.00;;;;;;;10.19;100.00;100636.47;10377565;28;20065;-83
2024/01/16 16:20:55;;;;;;;0.00;0.00;;;;;;;10.47;100.00;100632.81;10384767;28;20633;-83
2024/01/16 16:25:57;;;;;;;0.32;0.32;;;;;;;11.45;100.00;100629.59;10410103;28;20400;-83
2024/01/16 16:30:59;;;;;;;0.00;0.00;;;;;;;10.62;100.00;100622.00;10374511;28;20427;-82
2024/01/16 16:36:01;;;;;;;0.03;0.03;;;;;;;11.03;100.00;100628.81;10395558;28;20045;-83
2024/01/16 16:41:03;;;;;;;0.22;0.20;;;;;;;10.06;100.00;100640.44;10374570;28;20058;-83
2024/01/16 16:46:05;;;;;;;0.10;0.10;;;;;;;9.66;100.00;100650.63;10374753;28;20144;-83
2024/01/16 16:51:13;;;;;;;0.00;0.00;;;;;;;10.36;100.00;100644.56;10380272;28;20050;-83
2024/01/16 16:56:19;;;;;;;0.80;0.68;;;;;;;9.61;100.00;100636.75;10389673;28;20034;-82
2024/01/16 17:01:20;;;;;;;0.10;0.10;;;;;;;10.20;100.00;100634.75;10395518;28;20049;-82
2024/01/16 17:06:22;;;;;;;0.88;0.65;;;;;;;9.30;100.00;100624.81;10385632;28;20103;-81
2024/01/16 17:11:27;;;;;;;0.10;0.10;;;;;;;9.65;100.00;100617.13;10402851;28;20316;-81
2024/01/16 17:16:29;;;;;;;0.38;0.38;;;;;;;9.83;100.00;100614.13;10350022;28;20493;-82
2024/01/16 17:21:31;;;;;;;0.05;0.05;;;;;;;9.91;100.00;100616.91;10408874;28;20385;-82
2024/01/16 17:26:34;;;;;;;0.10;0.10;;;;;;;9.43;100.00;100616.59;10345779;28;20525;-81
2024/01/16 17:31:39;;;;;;;0.20;0.20;;;;;;;9.68;100.00;100606.94;10408696;28;20049;-81
2024/01/16 17:36:43;;;;;;;0.00;0.00;;;;;;;8.79;100.00;100606.31;10382936;28;20076;-82
2024/01/16 17:41:45;;;;;;;0.00;0.00;;;;;;;9.67;100.00;100600.94;10396550;28;20050;-82
2024/01/16 17:46:47;;;;;;;0.05;0.05;;;;;;;9.06;100.00;100595.06;10380948;28;20041;-81
2024/01/16 17:51:49;;;;;;;1.55;1.45;;;;;;;9.49;100.00;100585.88;10363801;28;20140;-82
2024/01/16 17:56:51;;;;;;;0.00;0.00;;;;;;;9.16;100.00;100575.59;10395550;28;20539;-82
2024/01/16 18:01:53;;;;;;;0.10;0.10;;;;;;;8.95;100.00;100570.78;10370832;28;20141;-81
2024/01/16 18:06:54;;;;;;;0.57;0.30;;;;;;;9.17;100.00;100573.09;10393678;28;20049;-83
2024/01/16 18:11:57;;;;;;;0.10;0.10;;;;;;;9.49;100.00;100570.44;10367478;28;20560;-82
2024/01/16 18:17:01;;;;;;;0.00;0.00;;;;;;;9.14;100.00;100572.16;10395593;28;20046;-82
2024/01/16 18:22:05;;;;;;;1.65;1.55;;;;;;;10.09;100.00;100563.28;10406612;28;20042;-82
2024/01/16 18:27:07;;;;;;;0.10;0.10;;;;;;;10.33;100.00;100567.22;10386038;28;20053;-81
2024/01/16 18:32:09;;;;;;;0.10;0.10;;;;;;;9.42;100.00;100568.56;10380337;28;20045;-80
2024/01/16 18:37:11;;;;;;;0.52;0.50;;;;;;;8.36;100.00;100558.84;10394567;28;20123;-82
2024/01/16 18:42:12;;;;;;;0.00;0.00;;;;;;;10.02;100.00;100545.09;10401250;28;20107;-80
2024/01/16 18:47:15;;;;;;;0.10;0.10;;;;;;;9.33;100.00;100550.34;10377860;28;20046;-81
2024/01/16 18:52:17;;;;;;;0.10;0.10;;;;;;;8.73;100.00;100535.09;10381668;28;20404;-81
2024/01/16 18:57:19;;;;;;;0.20;0.10;;;;;;;8.84;100.00;100532.81;10396489;28;20144;-82
2024/01/16 19:02:24;;;;;;;0.32;0.32;;;;;;;8.32;100.00;100539.00;10373205;28;20046;-81
2024/01/16 19:07:27;;;;;;;8.23;1.92;;;;;;;8.64;100.00;100528.84;10371601;28;20089;-82
2024/01/16 19:12:28;;;;;;;0.20;0.20;;;;;;;8.13;100.00;100525.66;10417347;28;20077;-82
2024/01/16 19:17:30;;;;;;;0.40;0.30;;;;;;;8.09;100.00;100523.81;10404873;28;20496;-81
2024/01/16 19:22:32;;;;;;;1.45;0.82;;;;;;;8.93;100.00;100521.03;10402243;28;20042;-81
2024/01/16 19:27:35;;;;;;;0.20;0.20;;;;;;;9.73;100.00;100528.16;10366240;28;20140;-82
2024/01/16 19:32:36;;;;;;;1.13;0.70;;;;;;;9.40;100.00;100525.66;10384153;28;20042;-81
2024/01/16 19:37:39;;;;;;;0.22;0.22;;;;;;;9.23;100.00;100535.53;10396346;28;20080;-81
2024/01/16 19:42:45;;;;;;;0.65;0.50;;;;;;;9.38;100.00;100533.34;10385055;28;20045;-81
2024/01/16 19:47:49;;;;;;;0.00;0.00;;;;;;;9.89;100.00;100523.38;10398002;28;20049;-82
2024/01/16 19:52:55;;;;;;;0.25;0.25;;;;;;;8.96;100.00;100503.16;10371300;28;20053;-82
2024/01/16 19:57:57;;;;;;;0.05;0.05;;;;;;;9.95;100.00;100484.91;10393453;28;20404;-80
2024/01/16 20:02:59;;;;;;;0.08;0.08;;;;;;;8.74;100.00;100484.59;10383581;28;20042;-82
2024/01/16 20:08:01;;;;;;;0.00;0.00;;;;;;;9.06;100.00;100476.84;10384550;28;20050;-81
2024/01/16 20:13:03;;;;;;;0.00;0.00;;;;;;;8.65;100.00;100474.94;10382441;28;20069;-82
2024/01/16 20:18:08;;;;;;;0.10;0.10;;;;;;;9.00;100.00;100466.41;10393564;28;20084;-82
2024/01/16 20:23:10;;;;;;;0.00;0.00;;;;;;;8.70;100.00;100459.66;10388815;28;20044;-80
2024/01/16 20:28:14;;;;;;;0.75;0.45;;;;;;;9.21;100.00;100461.81;10399484;28;20512;-81
2024/01/16 20:33:16;;;;;;;0.00;0.00;;;;;;;8.18;100.00;100447.09;10381414;28;20133;-82
2024/01/16 20:38:18;;;;;;;0.15;0.15;;;;;;;7.39;100.00;100444.78;10392520;28;20059;-82
2024/01/16 20:43:23;;;;;;;0.28;0.28;;;;;;;7.72;100.00;100444.06;10382551;28;20045;-81
2024/01/16 20:48:32;;;;;;;0.28;0.28;;;;;;;8.18;100.00;100441.97;10384531;28;20054;-82
2024/01/16 20:53:34;;;;;;;0.47;0.47;;;;;;;8.14;100.00;100435.03;10365266;28;20041;-81
2024/01/16 20:58:38;;;;;;;0.00;0.00;;;;;;;7.76;100.00;100442.47;10387214;28;20053;-81
2024/01/16 21:03:40;;;;;;;0.00;0.00;;;;;;;8.40;100.00;100428.06;10394563;28;20567;-81
2024/01/16 21:08:41;;;;;;;0.00;0.00;;;;;;;8.20;100.00;100424.03;10408955;28;20045;-82
2024/01/16 21:13:43;;;;;;;0.00;0.00;;;;;;;8.56;100.00;100408.81;10369246;28;20056;-82
2024/01/16 21:18:45;;;;;;;0.00;0.00;;;;;;;8.46;100.00;100406.78;10373691;28;20402;-82
2024/01/16 21:23:47;;;;;;;0.45;0.22;;;;;;;7.43;100.00;100399.59;10411740;28;20045;-82
2024/01/16 21:28:49;;;;;;;0.45;0.45;;;;;;;7.94;100.00;100401.97;10388962;28;20606;-83
2024/01/16 21:33:51;;;;;;;1.10;0.93;;;;;;;7.24;100.00;100381.09;10384673;28;20037;-82
2024/01/16 21:38:53;;;;;;;0.00;0.00;;;;;;;8.61;100.00;100379.81;10426197;28;20408;-82
2024/01/16 21:43:55;;;;;;;0.00;0.00;;;;;;;8.84;100.00;100377.81;10406853;28;20483;-81
2024/01/16 21:48:57;;;;;;;0.00;0.00;;;;;;;9.06;100.00;100366.34;10408314;28;20061;-81
2024/01/16 21:54:01;;;;;;;0.38;0.38;;;;;;;7.61;100.00;100359.16;10395815;28;20041;-81
2024/01/16 21:59:04;;;;;;;0.00;0.00;;;;;;;7.53;100.00;100345.22;10407007;28;20056;-81
2024/01/16 22:04:06;;;;;;;0.00;0.00;;;;;;;8.31;100.00;100352.47;10370540;28;20045;-82
2024/01/16 22:09:12;;;;;;;0.00;0.00;;;;;;;7.12;100.00;100349.97;10420666;28;20041;-82
2024/01/16 22:14:14;;;;;;;0.00;0.00;;;;;;;7.41;100.00;100348.31;10415914;28;20120;-82
2024/01/16 22:19:16;;;;;;;0.10;0.08;;;;;;;7.81;100.00;100347.72;10410368;28;20046;-81
2024/01/16 22:24:18;;;;;;;0.00;0.00;;;;;;;8.73;100.00;100333.91;10381675;28;20523;-83
2024/01/16 22:29:20;;;;;;;0.45;0.45;;;;;;;7.89;100.00;100324.03;10384174;28;20144;-81
2024/01/16 22:34:23;;;;;;;0.77;0.55;;;;;;;8.34;100.00;100314.06;10392553;28;20092;-82
2024/01/16 22:39:26;;;;;;;0.20;0.20;;;;;;;7.77;100.00;100298.91;10373173;28;20127;-81
2024/01/16 22:44:29;;;;;;;0.00;0.00;;;;;;;8.15;100.00;100289.63;10386661;28;20050;-82
2024/01/16 22:49:30;;;;;;;1.98;1.85;;;;;;;7.25;100.00;100274.34;10399780;28;20049;-82
2024/01/16 22:54:32;;;;;;;0.47;0.47;;;;;;;7.58;100.00;100271.88;10395585;28;20038;-81
2024/01/16 22:59:34;;;;;;;0.28;0.28;;;;;;;7.55;100.00;100266.69;10412390;28;20531;-81